Time;durP1;ratioP1;P1;durP2;ratioP2;P2;SDS_P1;SDS_P2;PMS_P1;PMS_P2;Temp;Humidity;BMP_temperature;BMP_pressure;BME280_temperature;BME280_humidity;BME280_pressure;Samples;Min_cycle;Max_cycle;Signal;HPM_P1;HPM_P2
2023/06/07 00:01:08;;;;;;;5.97;4.65;;;19.40;99.90;;;;;;5090023;28;20226;-51
2023/06/07 00:03:34;;;;;;;7.05;5.32;;;19.00;99.90;;;;;;5090523;28;20200;-48
2023/06/07 00:06:03;;;;;;;7.63;4.63;;;19.10;99.90;;;;;;5090539;28;20687;-47
2023/06/07 00:08:29;;;;;;;8.63;4.97;;;19.10;99.90;;;;;;5089807;28;20692;-47
2023/06/07 00:10:56;;;;;;;12.27;4.82;;;19.10;99.90;;;;;;5090088;28;20176;-47
2023/06/07 00:13:21;;;;;;;15.60;4.95;;;19.60;99.90;;;;;;5090185;28;20170;-47
2023/06/07 00:15:47;;;;;;;7.13;5.05;;;19.00;99.90;;;;;;5090038;28;20204;-47
2023/06/07 00:18:15;;;;;;;9.07;4.70;;;19.00;99.90;;;;;;5089332;28;20532;-51
2023/06/07 00:20:45;;;;;;;8.45;4.72;;;19.10;99.90;;;;;;5089711;28;20306;-51
2023/06/07 00:23:13;;;;;;;6.38;4.40;;;19.20;99.90;;;;;;5090038;28;20177;-52
2023/06/07 00:25:39;;;;;;;10.60;4.93;;;19.00;99.90;;;;;;5089646;28;20773;-48
2023/06/07 00:28:04;;;;;;;7.00;4.53;;;19.20;99.90;;;;;;5090373;28;20930;-52
2023/06/07 00:30:30;;;;;;;5.80;5.20;;;18.90;99.90;;;;;;5089643;28;20180;-51
2023/06/07 00:32:56;;;;;;;7.82;5.00;;;18.80;99.90;;;;;;5089648;28;20166;-51
2023/06/07 00:35:21;;;;;;;7.63;5.50;;;18.80;99.90;;;;;;5089499;28;20205;-51
2023/06/07 00:37:47;;;;;;;10.23;5.10;;;18.80;99.90;;;;;;5089786;28;20180;-52
2023/06/07 00:40:13;;;;;;;5.00;4.40;;;19.00;99.90;;;;;;5089645;28;20168;-52
2023/06/07 00:42:38;;;;;;;8.23;5.15;;;;;;;;;;5090110;28;20181;-48
2023/06/07 00:45:05;;;;;;;5.88;4.28;;;18.90;99.90;;;;;;5089851;28;20172;-47
2023/06/07 00:47:30;;;;;;;7.25;5.20;;;18.90;99.90;;;;;;5089295;28;20158;-47
2023/06/07 00:49:56;;;;;;;8.05;5.05;;;19.00;99.90;;;;;;5089507;28;20169;-48
2023/06/07 00:52:22;;;;;;;5.75;4.93;;;18.70;99.90;;;;;;5089521;28;20169;-48
2023/06/07 00:54:49;;;;;;;5.85;4.55;;;19.00;99.90;;;;;;5089415;28;20725;-49
2023/06/07 00:57:16;;;;;;;6.05;4.45;;;18.70;99.90;;;;;;5089532;28;20161;-47
2023/06/07 00:59:42;;;;;;;7.30;5.43;;;18.60;99.90;;;;;;5089465;28;20173;-48
2023/06/07 01:02:09;;;;;;;6.30;4.47;;;;;;;;;;5088813;28;20170;-47
2023/06/07 01:04:34;;;;;;;10.02;4.90;;;18.90;99.90;;;;;;5091328;28;20189;-47
2023/06/07 01:07:03;;;;;;;11.93;4.90;;;18.90;99.90;;;;;;5094588;28;20683;-47
2023/06/07 01:09:29;;;;;;;7.97;4.90;;;18.80;99.90;;;;;;5095427;28;20158;-47
2023/06/07 01:11:56;;;;;;;12.68;5.07;;;18.80;99.90;;;;;;5095584;28;20218;-47
2023/06/07 01:14:23;;;;;;;6.78;4.25;;;18.70;99.90;;;;;;5095258;28;20186;-47
2023/06/07 01:16:52;;;;;;;8.18;5.45;;;18.90;99.90;;;;;;5095349;28;20258;-47
2023/06/07 01:19:23;;;;;;;8.88;5.15;;;19.00;99.90;;;;;;5095158;28;20526;-47
2023/06/07 01:21:57;;;;;;;8.88;5.43;;;19.00;99.90;;;;;;5095246;28;20168;-47
2023/06/07 01:24:22;;;;;;;6.65;4.75;;;18.90;99.90;;;;;;5095039;28;20161;-47
2023/06/07 01:26:53;;;;;;;6.70;5.25;;;18.80;99.90;;;;;;5095102;28;20179;-47
2023/06/07 01:29:21;;;;;;;8.98;5.90;;;18.90;99.90;;;;;;5095174;28;20176;-47
2023/06/07 01:31:49;;;;;;;10.48;5.35;;;19.50;99.90;;;;;;5095022;28;20231;-47
2023/06/07 01:34:14;;;;;;;8.50;5.50;;;18.60;99.90;;;;;;5095104;28;20196;-47
2023/06/07 01:36:41;;;;;;;8.10;4.55;;;18.90;99.90;;;;;;5095029;28;20670;-47
2023/06/07 01:39:07;;;;;;;10.38;5.13;;;18.80;99.90;;;;;;5095320;28;20158;-47
2023/06/07 01:41:34;;;;;;;6.55;4.80;;;18.70;99.90;;;;;;5095164;28;20244;-48
2023/06/07 01:44:00;;;;;;;9.30;4.70;;;18.80;99.90;;;;;;5094747;28;20235;-48
2023/06/07 01:46:26;;;;;;;12.95;5.80;;;18.80;99.90;;;;;;5094856;28;20183;-47
2023/06/07 01:48:52;;;;;;;7.63;5.25;;;18.80;99.90;;;;;;5094510;28;20655;-48
2023/06/07 01:51:18;;;;;;;13.82;5.53;;;18.70;99.90;;;;;;5094635;28;20184;-47
2023/06/07 01:53:46;;;;;;;9.52;5.60;;;18.60;99.90;;;;;;5094745;28;20176;-47
2023/06/07 01:56:25;;;;;;;12.15;5.68;;;19.10;99.90;;;;;;5094432;28;20235;-47
2023/06/07 01:59:03;;;;;;;10.10;5.35;;;18.50;99.90;;;;;;5094704;28;20196;-47
2023/06/07 02:01:54;;;;;;;7.05;5.85;;;18.60;99.90;;;;;;5094438;28;20165;-47
2023/06/07 02:04:22;;;;;;;9.63;5.70;;;18.70;99.90;;;;;;5094544;28;20226;-47
2023/06/07 02:06:50;;;;;;;9.38;6.15;;;18.80;99.90;;;;;;5094124;28;20169;-47
2023/06/07 02:09:22;;;;;;;14.05;5.63;;;18.60;99.90;;;;;;5094506;28;20205;-47
2023/06/07 02:11:49;;;;;;;10.05;5.88;;;18.70;99.90;;;;;;5094239;28;20625;-47
2023/06/07 02:14:16;;;;;;;7.95;5.55;;;18.60;99.90;;;;;;5094106;28;20180;-48
2023/06/07 02:16:41;;;;;;;9.05;6.20;;;18.20;99.90;;;;;;5093181;28;20564;-47
2023/06/07 02:19:08;;;;;;;8.07;5.85;;;19.90;99.90;;;;;;5094061;28;20162;-47
2023/06/07 02:21:37;;;;;;;9.55;6.38;;;18.50;99.90;;;;;;5094395;28;20169;-47
2023/06/07 02:24:04;;;;;;;11.32;6.25;;;18.50;99.90;;;;;;5094540;28;20238;-48
2023/06/07 02:26:29;;;;;;;9.25;6.32;;;18.50;99.90;;;;;;5094163;28;20196;-48
2023/06/07 02:28:55;;;;;;;9.05;6.57;;;18.50;99.90;;;;;;5093935;28;20629;-47
2023/06/07 02:31:21;;;;;;;14.73;7.00;;;18.60;99.90;;;;;;5093793;28;20166;-47
2023/06/07 02:33:48;;;;;;;10.93;6.93;;;18.40;99.90;;;;;;5093812;28;20167;-47
2023/06/07 02:36:13;;;;;;;11.82;6.47;;;18.30;99.90;;;;;;5093903;28;20213;-47
2023/06/07 02:38:39;;;;;;;12.38;6.40;;;18.50;99.90;;;;;;5093755;28;20169;-48
2023/06/07 02:41:05;;;;;;;11.25;6.90;;;18.50;99.90;;;;;;5094345;28;20177;-47
2023/06/07 02:43:30;;;;;;;9.70;6.03;;;18.50;99.90;;;;;;5093850;28;20568;-47
2023/06/07 02:45:56;;;;;;;12.00;6.28;;;18.30;99.90;;;;;;5093538;28;20716;-47
2023/06/07 02:48:22;;;;;;;9.02;6.30;;;18.40;99.90;;;;;;5093582;28;20173;-48
2023/06/07 02:50:47;;;;;;;8.95;6.68;;;18.10;99.90;;;;;;5093497;28;20564;-50
2023/06/07 02:53:13;;;;;;;10.80;7.13;;;18.30;99.90;;;;;;5093369;28;20166;-47
2023/06/07 02:55:39;;;;;;;12.07;6.20;;;18.10;99.90;;;;;;5093535;28;20671;-48
2023/06/07 02:58:05;;;;;;;7.88;6.25;;;18.20;99.90;;;;;;5093912;28;20165;-48
2023/06/07 03:00:31;;;;;;;8.35;6.28;;;18.20;99.90;;;;;;5093543;28;20173;-51
2023/06/07 03:02:57;;;;;;;12.48;6.35;;;18.20;99.90;;;;;;5093445;28;20169;-48
2023/06/07 03:05:24;;;;;;;8.82;6.22;;;18.20;99.90;;;;;;5093085;28;20172;-48
2023/06/07 03:07:50;;;;;;;8.15;6.30;;;18.00;99.90;;;;;;5093127;28;20224;-47
2023/06/07 03:10:16;;;;;;;11.90;6.22;;;18.30;99.90;;;;;;5093098;28;20525;-47
2023/06/07 03:12:41;;;;;;;9.48;7.03;;;18.30;99.90;;;;;;5092997;28;20183;-48
2023/06/07 03:15:08;;;;;;;10.68;6.25;;;;;;;;;;5092908;28;20280;-48
2023/06/07 03:17:33;;;;;;;8.45;6.03;;;18.10;99.90;;;;;;5093337;28;20170;-48
2023/06/07 03:20:00;;;;;;;10.00;6.00;;;18.10;99.90;;;;;;5092925;28;20161;-48
2023/06/07 03:22:26;;;;;;;9.10;6.15;;;18.10;99.90;;;;;;5092793;28;20248;-49
2023/06/07 03:24:54;;;;;;;10.27;6.40;;;18.80;99.90;;;;;;5092710;28;20250;-51
2023/06/07 03:27:23;;;;;;;9.85;6.25;;;18.00;99.90;;;;;;5093016;28;20180;-47
2023/06/07 03:29:49;;;;;;;10.90;6.32;;;18.20;99.90;;;;;;5092698;28;20169;-48
2023/06/07 03:32:15;;;;;;;13.98;6.28;;;17.90;99.90;;;;;;5092610;28;20169;-49
2023/06/07 03:34:41;;;;;;;12.55;6.70;;;18.30;99.90;;;;;;5092561;28;20523;-48
2023/06/07 03:37:07;;;;;;;13.63;6.85;;;;;;;;;;5092648;28;20231;-47
2023/06/07 03:39:33;;;;;;;7.45;5.90;;;18.20;99.90;;;;;;5092938;28;20180;-48
2023/06/07 03:41:59;;;;;;;10.80;6.75;;;18.20;99.90;;;;;;5092470;28;20256;-50
2023/06/07 03:44:24;;;;;;;13.75;6.68;;;18.20;99.90;;;;;;5092629;28;20174;-48
2023/06/07 03:46:50;;;;;;;13.95;6.43;;;17.60;99.90;;;;;;5092650;28;20180;-49
2023/06/07 03:49:16;;;;;;;10.68;6.18;;;17.90;99.90;;;;;;5092384;28;20162;-49
2023/06/07 03:51:43;;;;;;;15.18;6.22;;;18.70;99.90;;;;;;5091862;28;20173;-47
2023/06/07 03:54:08;;;;;;;10.57;5.95;;;17.60;99.90;;;;;;5092465;28;20212;-47
2023/06/07 03:56:34;;;;;;;14.57;6.20;;;18.00;99.90;;;;;;5092564;28;20232;-47
2023/06/07 03:59:03;;;;;;;16.25;7.30;;;18.10;99.90;;;;;;5092484;28;20176;-47
2023/06/07 04:01:28;;;;;;;13.15;6.50;;;18.10;99.90;;;;;;5092073;28;20166;-47
2023/06/07 04:03:54;;;;;;;10.00;6.20;;;17.70;99.90;;;;;;5092089;28;20173;-47
2023/06/07 04:06:20;;;;;;;9.15;6.63;;;18.20;99.90;;;;;;5092058;28;20179;-47
2023/06/07 04:08:46;;;;;;;12.20;5.78;;;17.70;99.90;;;;;;5091812;28;20351;-47
2023/06/07 04:11:12;;;;;;;8.95;6.38;;;17.80;99.90;;;;;;5091922;28;20173;-47
2023/06/07 04:13:37;;;;;;;10.35;6.88;;;18.30;99.90;;;;;;5092164;28;20169;-47
2023/06/07 04:16:03;;;;;;;11.30;6.60;;;18.20;99.90;;;;;;5092502;28;20209;-48
2023/06/07 04:18:29;;;;;;;10.13;6.43;;;18.20;99.90;;;;;;5091855;28;20165;-47
2023/06/07 04:20:54;;;;;;;11.43;6.50;;;18.50;99.90;;;;;;5092015;28;20169;-47
2023/06/07 04:23:21;;;;;;;9.18;6.43;;;17.90;99.90;;;;;;5091747;28;20244;-47
2023/06/07 04:25:46;;;;;;;9.68;6.00;;;18.10;99.90;;;;;;5091780;28;20628;-47
2023/06/07 04:28:12;;;;;;;9.48;6.85;;;18.10;99.90;;;;;;5091752;28;20166;-47
2023/06/07 04:30:42;;;;;;;14.73;7.40;;;18.40;99.90;;;;;;5091676;28;20293;-47
2023/06/07 04:33:12;;;;;;;12.75;6.68;;;17.80;99.90;;;;;;5091877;28;20256;-47
2023/06/07 04:35:38;;;;;;;13.10;6.88;;;18.10;99.90;;;;;;5091552;28;20537;-47
2023/06/07 04:38:04;;;;;;;12.25;7.65;;;17.90;99.90;;;;;;5092024;28;20210;-47
2023/06/07 04:40:30;;;;;;;12.77;7.07;;;17.90;99.90;;;;;;5091216;28;20169;-47
2023/06/07 04:43:05;;;;;;;12.32;6.85;;;18.00;99.90;;;;;;5091820;28;20180;-47
2023/06/07 04:45:36;;;;;;;14.55;6.97;;;18.10;99.90;;;;;;5091556;28;20248;-47
2023/06/07 04:48:11;;;;;;;18.65;7.60;;;18.10;99.90;;;;;;5092002;28;20169;-47
2023/06/07 04:50:38;;;;;;;13.10;7.25;;;;;;;;;;5091710;28;20259;-47
2023/06/07 04:53:04;;;;;;;12.85;7.32;;;18.80;99.90;;;;;;5092168;28;20217;-47
2023/06/07 04:55:34;;;;;;;12.13;6.95;;;18.20;99.90;;;;;;5091381;28;20197;-47
2023/06/07 04:58:04;;;;;;;14.07;7.10;;;18.20;99.90;;;;;;5091370;28;20165;-47
2023/06/07 05:00:30;;;;;;;10.55;7.32;;;18.00;99.90;;;;;;5091305;28;20633;-47
2023/06/07 05:02:57;;;;;;;14.63;7.63;;;18.30;99.90;;;;;;5091523;28;20169;-48
2023/06/07 05:05:22;;;;;;;20.67;6.95;;;19.00;99.90;;;;;;5091341;28;20263;-47
2023/06/07 05:07:49;;;;;;;15.00;7.90;;;18.20;99.90;;;;;;5091118;28;20253;-47
2023/06/07 05:10:16;;;;;;;12.35;7.78;;;18.00;99.90;;;;;;5091220;28;20157;-47
2023/06/07 05:12:42;;;;;;;16.65;7.50;;;18.40;99.90;;;;;;5091329;28;20166;-47
2023/06/07 05:15:08;;;;;;;15.20;7.68;;;18.40;99.90;;;;;;5091284;28;20254;-48
2023/06/07 05:17:34;;;;;;;14.90;7.40;;;18.20;99.90;;;;;;5091722;28;20166;-48
2023/06/07 05:20:00;;;;;;;15.68;7.97;;;18.30;99.90;;;;;;5091395;28;20180;-47
2023/06/07 05:22:25;;;;;;;15.10;7.60;;;18.40;99.90;;;;;;5091168;28;20641;-47
2023/06/07 05:24:51;;;;;;;17.80;7.22;;;18.20;99.90;;;;;;5090948;28;20274;-47
2023/06/07 05:27:17;;;;;;;14.15;7.03;;;17.90;99.90;;;;;;5090989;28;20181;-47
2023/06/07 05:29:43;;;;;;;18.45;7.82;;;18.20;99.90;;;;;;5090785;28;20524;-47
2023/06/07 05:32:09;;;;;;;16.77;7.68;;;18.30;99.90;;;;;;5091221;28;20165;-47
2023/06/07 05:34:35;;;;;;;13.55;7.25;;;18.30;99.90;;;;;;5091388;28;20576;-47
2023/06/07 05:37:05;;;;;;;15.65;7.85;;;18.20;99.90;;;;;;5090775;28;20182;-47
2023/06/07 05:39:31;;;;;;;12.55;7.90;;;18.20;99.90;;;;;;5090933;28;20166;-47
2023/06/07 05:41:56;;;;;;;10.75;6.95;;;18.30;99.90;;;;;;5090929;28;20291;-47
2023/06/07 05:44:22;;;;;;;18.90;7.60;;;18.40;99.90;;;;;;5090843;28;20169;-47
2023/06/07 05:46:47;;;;;;;13.70;7.88;;;18.40;99.90;;;;;;5090791;28;20172;-47
2023/06/07 05:49:13;;;;;;;14.40;7.72;;;18.40;99.90;;;;;;5090962;28;20165;-48
2023/06/07 05:51:38;;;;;;;12.15;7.78;;;18.80;99.90;;;;;;5091938;28;20170;-47
2023/06/07 05:54:08;;;;;;;15.88;8.45;;;18.70;99.90;;;;;;5094928;28;20632;-47
2023/06/07 05:56:33;;;;;;;14.20;7.22;;;18.80;99.90;;;;;;5095110;28;20216;-47
2023/06/07 05:58:59;;;;;;;10.45;8.00;;;18.80;99.90;;;;;;5094447;28;20162;-48
2023/06/07 06:01:24;;;;;;;13.75;7.65;;;18.60;99.90;;;;;;5094407;28;20194;-47
2023/06/07 06:03:50;;;;;;;16.38;7.90;;;18.60;99.90;;;;;;5076202;28;20226;-47
2023/06/07 06:06:18;;;;;;;15.50;7.88;;;18.70;99.90;;;;;;5094623;28;20564;-47
2023/06/07 06:08:45;;;;;;;12.02;6.93;;;18.40;99.90;;;;;;5094204;28;20241;-47
2023/06/07 06:11:12;;;;;;;11.93;7.80;;;18.30;99.90;;;;;;5094548;28;20169;-48
2023/06/07 06:13:42;;;;;;;14.80;8.00;;;18.70;99.90;;;;;;5094283;28;20192;-47
2023/06/07 06:16:07;;;;;;;21.35;9.32;;;18.90;99.90;;;;;;5094049;28;20684;-48
2023/06/07 06:18:33;;;;;;;22.67;8.30;;;18.80;99.90;;;;;;5094435;28;20199;-47
2023/06/07 06:20:58;;;;;;;16.40;7.78;;;18.90;99.90;;;;;;5094127;28;20248;-48
2023/06/07 06:23:25;;;;;;;17.55;7.32;;;18.80;99.90;;;;;;5075812;28;20264;-47
2023/06/07 06:25:50;;;;;;;13.43;7.07;;;18.90;99.90;;;;;;5094350;28;20178;-47
2023/06/07 06:28:16;;;;;;;11.38;7.28;;;19.00;99.90;;;;;;5075791;28;20169;-47
2023/06/07 06:30:45;;;;;;;13.93;8.10;;;19.10;99.90;;;;;;5075478;28;20169;-51
2023/06/07 06:33:10;;;;;;;14.20;8.27;;;19.00;99.90;;;;;;5093917;28;20165;-49
2023/06/07 06:35:37;;;;;;;12.98;8.13;;;19.20;99.90;;;;;;5093720;28;20204;-48
2023/06/07 06:38:03;;;;;;;15.90;8.43;;;19.10;99.90;;;;;;5094094;28;20617;-48
2023/06/07 06:40:28;;;;;;;13.52;7.18;;;18.80;99.90;;;;;;5093995;28;20194;-49
2023/06/07 06:42:54;;;;;;;16.63;8.00;;;18.70;99.90;;;;;;5093484;28;20632;-48
2023/06/07 06:45:20;;;;;;;13.68;8.25;;;18.60;99.90;;;;;;5093505;28;20183;-50
2023/06/07 06:47:45;;;;;;;12.48;7.63;;;18.80;99.90;;;;;;5093399;28;20253;-47
2023/06/07 06:50:13;;;;;;;13.68;7.70;;;18.50;99.90;;;;;;5094021;28;20176;-48
2023/06/07 06:52:40;;;;;;;15.18;7.50;;;18.70;99.90;;;;;;5093259;28;20161;-47
2023/06/07 06:55:07;;;;;;;14.15;8.15;;;18.60;99.90;;;;;;5093148;28;20201;-47
2023/06/07 06:57:33;;;;;;;11.77;7.20;;;18.70;99.90;;;;;;5093677;28;20207;-47
2023/06/07 06:59:59;;;;;;;15.38;7.72;;;18.80;99.90;;;;;;5092928;28;20173;-47
2023/06/07 07:02:25;;;;;;;14.73;8.40;;;18.90;99.90;;;;;;5093469;28;20176;-47
2023/06/07 07:04:51;;;;;;;15.55;9.20;;;18.80;99.90;;;;;;5092622;28;20165;-47
2023/06/07 07:07:16;;;;;;;15.32;7.97;;;18.80;99.90;;;;;;5093085;28;20271;-47
2023/06/07 07:09:42;;;;;;;14.30;8.70;;;18.70;99.90;;;;;;5092893;28;20248;-47
2023/06/07 07:12:08;;;;;;;13.88;8.00;;;18.70;99.90;;;;;;5090736;28;20632;-48
2023/06/07 07:14:33;;;;;;;19.90;8.98;;;18.70;99.90;;;;;;5091656;28;20174;-48
2023/06/07 07:17:00;;;;;;;14.50;7.82;;;18.60;99.90;;;;;;5090488;28;20213;-50
2023/06/07 07:19:26;;;;;;;15.60;8.85;;;18.60;99.90;;;;;;5091348;28;20172;-48
2023/06/07 07:21:52;;;;;;;16.33;8.40;;;18.50;99.90;;;;;;5091177;28;20165;-51
2023/06/07 07:24:17;;;;;;;12.85;7.65;;;18.60;99.90;;;;;;5091003;28;20174;-50
2023/06/07 07:26:43;;;;;;;15.52;7.50;;;18.70;99.90;;;;;;5090843;28;20165;-50
2023/06/07 07:29:09;;;;;;;14.50;8.30;;;18.80;99.90;;;;;;5090712;28;20178;-50
2023/06/07 07:31:34;;;;;;;15.65;9.10;;;18.50;99.90;;;;;;5091246;28;20161;-50
2023/06/07 07:34:01;;;;;;;16.98;9.15;;;18.70;99.90;;;;;;5090866;28;20169;-50
2023/06/07 07:36:28;;;;;;;16.90;8.75;;;18.60;99.90;;;;;;5090931;28;20240;-51
2023/06/07 07:38:54;;;;;;;18.98;8.85;;;19.10;99.90;;;;;;5090926;28;20311;-51
2023/06/07 07:41:20;;;;;;;19.52;9.35;;;19.30;99.90;;;;;;5090460;28;20659;-51
2023/06/07 07:43:45;;;;;;;14.88;9.45;;;18.60;99.90;;;;;;5090499;28;20201;-51
2023/06/07 07:46:13;;;;;;;15.10;9.50;;;19.00;99.90;;;;;;5072236;28;20162;-51
2023/06/07 07:48:39;;;;;;;16.00;8.75;;;19.00;99.90;;;;;;5090418;28;20286;-51
2023/06/07 07:51:05;;;;;;;17.95;8.90;;;19.00;99.90;;;;;;5091150;28;20173;-50
2023/06/07 07:53:31;;;;;;;16.33;8.93;;;18.80;99.90;;;;;;5090778;28;20229;-51
2023/06/07 07:55:57;;;;;;;15.43;8.43;;;19.20;99.90;;;;;;5090568;28;20209;-51
2023/06/07 07:58:25;;;;;;;17.75;8.80;;;19.60;99.90;;;;;;5090327;28;20177;-51
2023/06/07 08:00:51;;;;;;;12.15;7.18;;;19.50;99.90;;;;;;5090098;28;20215;-50
2023/06/07 08:03:16;;;;;;;19.48;7.55;;;19.50;99.90;;;;;;5087811;28;20161;-51
2023/06/07 08:05:42;;;;;;;12.65;7.30;;;19.70;99.90;;;;;;5087934;28;20282;-51
2023/06/07 08:08:07;;;;;;;11.38;6.75;;;19.70;99.90;;;;;;5090066;28;20652;-50
2023/06/07 08:10:33;;;;;;;12.07;7.20;;;19.80;99.90;;;;;;5090930;28;20184;-51
2023/06/07 08:12:58;;;;;;;12.90;7.65;;;19.70;99.90;;;;;;5090179;28;20679;-51
2023/06/07 08:15:24;;;;;;;11.80;7.60;;;19.70;99.90;;;;;;5089102;28;20246;-51
2023/06/07 08:17:50;;;;;;;17.63;8.52;;;19.70;99.90;;;;;;5090391;28;20177;-51
2023/06/07 08:20:15;;;;;;;15.13;7.43;;;19.90;99.90;;;;;;5089987;28;20166;-51
2023/06/07 08:22:41;;;;;;;14.60;7.95;;;19.90;99.90;;;;;;5089898;28;20248;-50
2023/06/07 08:25:09;;;;;;;10.98;7.05;;;19.80;99.90;;;;;;5089995;28;20566;-50
2023/06/07 08:27:34;;;;;;;16.92;8.45;;;19.70;99.90;;;;;;5090481;28;20587;-51
2023/06/07 08:30:00;;;;;;;16.27;8.10;;;19.60;99.90;;;;;;5087674;28;20197;-50
2023/06/07 08:32:25;;;;;;;15.15;8.75;;;19.50;99.90;;;;;;5070282;28;20196;-51
2023/06/07 08:34:51;;;;;;;11.18;7.45;;;19.40;99.90;;;;;;5069078;28;20213;-51
2023/06/07 08:37:16;;;;;;;11.70;8.48;;;19.40;99.90;;;;;;5084765;28;20176;-51
2023/06/07 08:39:42;;;;;;;12.00;7.63;;;19.40;99.90;;;;;;5089227;28;20177;-51
2023/06/07 08:42:08;;;;;;;15.50;7.57;;;19.40;99.90;;;;;;5078061;28;20540;-51
2023/06/07 08:44:33;;;;;;;11.15;7.72;;;19.30;99.90;;;;;;5069515;28;20645;-51
2023/06/07 08:47:00;;;;;;;17.25;8.40;;;19.30;99.90;;;;;;5069374;28;20253;-51
2023/06/07 08:49:31;;;;;;;11.57;7.68;;;19.30;99.90;;;;;;5051312;28;20663;-51
2023/06/07 08:51:58;;;;;;;12.77;8.23;;;19.50;99.90;;;;;;5069338;28;20170;-51
2023/06/07 08:54:27;;;;;;;16.08;7.95;;;19.50;99.90;;;;;;5069272;28;20245;-51
2023/06/07 08:56:55;;;;;;;10.85;7.38;;;21.80;99.90;;;;;;5051294;28;20214;-51
2023/06/07 08:59:25;;;;;;;13.82;7.55;;;20.00;99.90;;;;;;5069460;28;20239;-52
2023/06/07 09:01:52;;;;;;;13.93;7.45;;;20.00;99.90;;;;;;5069642;28;20174;-51
2023/06/07 09:04:18;;;;;;;14.80;8.98;;;19.90;99.90;;;;;;5069671;28;20170;-51
2023/06/07 09:06:44;;;;;;;11.98;8.05;;;19.90;99.90;;;;;;5069081;28;20170;-51
2023/06/07 09:09:10;;;;;;;15.50;8.85;;;20.20;99.90;;;;;;5069237;28;20181;-51
2023/06/07 09:11:35;;;;;;;13.48;8.68;;;20.20;99.90;;;;;;5069653;28;20174;-51
2023/06/07 09:14:02;;;;;;;16.77;8.18;;;20.30;99.90;;;;;;5069856;28;20231;-51
2023/06/07 09:16:27;;;;;;;12.52;8.40;;;20.20;99.90;;;;;;5069139;28;20201;-50
2023/06/07 09:18:56;;;;;;;12.57;8.50;;;20.40;99.90;;;;;;5069308;28;20220;-50
2023/06/07 09:21:21;;;;;;;14.32;8.32;;;21.00;99.90;;;;;;5069463;28;20170;-50
2023/06/07 09:23:47;;;;;;;13.00;8.98;;;20.40;99.90;;;;;;5069429;28;20177;-50
2023/06/07 09:26:15;;;;;;;16.92;9.02;;;20.90;99.90;;;;;;5069783;28;20201;-50
2023/06/07 09:28:40;;;;;;;12.85;8.23;;;20.40;99.90;;;;;;5073213;28;20400;-50
2023/06/07 09:31:06;;;;;;;15.50;9.00;;;20.20;99.90;;;;;;5072814;28;20166;-50
2023/06/07 09:33:36;;;;;;;14.77;9.52;;;20.40;99.90;;;;;;5073130;28;20185;-50
2023/06/07 09:36:07;;;;;;;12.88;9.10;;;21.10;99.90;;;;;;5073014;28;20669;-50
2023/06/07 09:38:33;;;;;;;10.73;8.65;;;20.50;99.90;;;;;;5073126;28;20168;-51
2023/06/07 09:40:59;;;;;;;13.45;9.05;;;20.50;99.90;;;;;;5072555;28;20174;-50
2023/06/07 09:43:25;;;;;;;16.10;9.07;;;20.80;99.90;;;;;;5072893;28;20180;-51
2023/06/07 09:45:58;;;;;;;13.80;8.40;;;20.60;99.90;;;;;;5072788;28;20182;-51
2023/06/07 09:48:23;;;;;;;15.02;9.43;;;20.70;99.90;;;;;;5072744;28;20257;-51
2023/06/07 09:50:56;;;;;;;14.48;7.90;;;20.50;99.90;;;;;;5072377;28;20571;-51
2023/06/07 09:53:22;;;;;;;13.85;7.90;;;20.80;99.90;;;;;;5072383;28;20184;-51
2023/06/07 09:55:47;;;;;;;15.00;8.77;;;20.10;99.90;;;;;;5072414;28;20205;-51
2023/06/07 09:58:22;;;;;;;11.73;8.80;;;19.60;99.90;;;;;;5072497;28;20184;-51
2023/06/07 10:00:47;;;;;;;15.02;9.13;;;19.80;99.90;;;;;;5072267;28;20628;-51
2023/06/07 10:03:13;;;;;;;11.77;7.97;;;19.60;99.90;;;;;;5072576;28;20277;-51
2023/06/07 10:05:39;;;;;;;18.92;8.40;;;19.20;99.90;;;;;;5072431;28;20579;-50
2023/06/07 10:08:06;;;;;;;19.98;9.43;;;19.30;99.90;;;;;;5075959;28;20656;-51
2023/06/07 10:10:34;;;;;;;11.73;8.23;;;19.20;99.90;;;;;;5092890;28;20162;-52
2023/06/07 10:13:04;;;;;;;13.00;9.32;;;19.50;99.90;;;;;;5092695;28;20498;-51
2023/06/07 10:15:31;;;;;;;16.75;9.15;;;19.40;99.90;;;;;;5092009;28;20238;-51
2023/06/07 10:18:24;;;;;;;13.48;9.07;;;19.90;99.90;;;;;;5092142;28;20620;-51
2023/06/07 10:20:57;;;;;;;19.73;10.57;;;19.10;99.90;;;;;;5092501;28;20180;-51
2023/06/07 10:23:47;;;;;;;19.00;11.63;;;18.80;99.90;;;;;;5092240;28;20173;-51
2023/06/07 10:26:28;;;;;;;17.98;10.88;;;18.90;99.90;;;;;;5092515;28;20280;-51
2023/06/07 10:29:03;;;;;;;17.02;11.30;;;19.50;99.90;;;;;;5092120;28;20248;-51
2023/06/07 10:31:36;;;;;;;19.77;11.55;;;18.70;99.90;;;;;;5092032;28;20640;-50
2023/06/07 10:34:07;;;;;;;18.60;11.38;;;18.50;99.90;;;;;;5092356;28;20279;-51
2023/06/07 10:36:38;;;;;;;19.25;11.73;;;18.70;99.90;;;;;;5074177;28;20219;-51
2023/06/07 10:39:06;;;;;;;24.75;12.20;;;18.40;99.90;;;;;;5090939;28;20173;-51
2023/06/07 10:41:33;;;;;;;19.73;12.15;;;18.70;99.90;;;;;;5092550;28;20256;-51
2023/06/07 10:44:01;;;;;;;15.77;11.05;;;18.40;99.90;;;;;;5091320;28;20193;-51
2023/06/07 10:46:27;;;;;;;16.55;11.48;;;18.30;99.90;;;;;;5091363;28;20717;-50
2023/06/07 10:48:55;;;;;;;19.20;11.63;;;18.30;99.90;;;;;;5091683;28;20536;-51
2023/06/07 10:52:03;;;;;;;20.50;11.73;;;18.30;99.90;;;;;;5091602;28;20181;-51
2023/06/07 10:54:32;;;;;;;25.20;12.27;;;18.20;99.90;;;;;;5029079;28;20179;-51
2023/06/07 10:57:02;;;;;;;16.73;11.13;;;18.30;99.90;;;;;;5029033;28;20226;-51
2023/06/07 10:59:28;;;;;;;16.63;11.63;;;18.80;99.90;;;;;;5063167;28;20177;-51
2023/06/07 11:02:24;;;;;;;21.30;12.20;;;18.70;99.90;;;;;;5091307;28;20218;-51
2023/06/07 11:04:52;;;;;;;20.33;12.32;;;18.60;99.90;;;;;;5091240;28;20158;-51
2023/06/07 11:07:23;;;;;;;19.67;13.30;;;18.90;99.90;;;;;;5091206;28;20270;-51
2023/06/07 11:10:13;;;;;;;16.27;12.27;;;19.20;99.90;;;;;;5091608;28;20179;-51
2023/06/07 11:12:40;;;;;;;21.35;14.20;;;19.30;99.90;;;;;;5091190;28;20173;-51
2023/06/07 11:15:20;;;;;;;20.70;14.38;;;19.90;99.90;;;;;;5091396;28;20284;-50
2023/06/07 11:17:59;;;;;;;24.60;14.30;;;20.20;99.90;;;;;;5091087;28;20166;-51
2023/06/07 11:20:37;;;;;;;20.85;14.70;;;19.80;99.90;;;;;;5091321;28;20719;-51
2023/06/07 11:23:23;;;;;;;21.50;14.25;;;19.90;99.90;;;;;;5091355;28;20644;-51
2023/06/07 11:25:51;;;;;;;19.13;14.07;;;19.80;99.90;;;;;;5090802;28;20655;-51
2023/06/07 11:28:22;;;;;;;20.17;15.60;;;20.00;99.90;;;;;;5090902;28;20302;-50
2023/06/07 11:30:49;;;;;;;30.30;21.70;;;20.80;99.90;;;;;;5090708;28;20170;-50
2023/06/07 11:33:15;;;;;;;21.92;18.27;;;20.10;99.90;;;;;;5090777;28;20169;-50
2023/06/07 11:35:41;;;;;;;23.30;19.75;;;20.20;99.90;;;;;;5090687;28;20704;-50
2023/06/07 11:38:07;;;;;;;22.33;17.27;;;20.70;99.90;;;;;;5090712;28;20234;-50
2023/06/07 11:40:33;;;;;;;26.50;20.45;;;20.70;99.90;;;;;;5091000;28;20165;-50
2023/06/07 11:42:59;;;;;;;28.08;22.50;;;20.80;99.90;;;;;;5090811;28;20531;-50
2023/06/07 11:45:24;;;;;;;29.08;23.83;;;20.70;99.90;;;;;;5090646;28;20176;-50
2023/06/07 11:47:50;;;;;;;37.80;27.35;;;21.10;99.90;;;;;;5090136;28;20165;-50
2023/06/07 11:50:17;;;;;;;33.70;25.13;;;21.60;99.90;;;;;;5090178;28;20161;-50
2023/06/07 11:52:42;;;;;;;37.80;27.30;;;21.50;99.90;;;;;;5090335;28;20180;-51
2023/06/07 11:55:08;;;;;;;37.42;28.02;;;21.70;99.90;;;;;;5090433;28;20193;-51
2023/06/07 11:57:38;;;;;;;32.53;27.55;;;22.00;99.90;;;;;;5090983;28;20230;-50
2023/06/07 12:00:11;;;;;;;30.00;25.88;;;21.70;99.90;;;;;;5091024;28;20169;-50
2023/06/07 12:02:39;;;;;;;32.92;25.10;;;22.00;99.90;;;;;;5090425;28;20165;-50
2023/06/07 12:05:09;;;;;;;32.75;26.95;;;22.10;99.90;;;;;;5090731;28;20656;-52
2023/06/07 12:07:35;;;;;;;33.75;25.48;;;22.10;99.90;;;;;;5090501;28;20221;-51
2023/06/07 12:10:02;;;;;;;33.95;27.25;;;22.60;99.90;;;;;;5090876;28;20527;-51
2023/06/07 12:12:28;;;;;;;27.45;23.50;;;22.60;99.90;;;;;;5090100;28;20165;-51
2023/06/07 12:15:00;;;;;;;26.27;22.13;;;22.70;99.90;;;;;;5090409;28;20182;-50
2023/06/07 12:17:34;;;;;;;26.23;23.42;;;22.60;99.90;;;;;;5090017;28;20616;-51
2023/06/07 12:20:28;;;;;;;30.90;23.95;;;22.80;99.90;;;;;;5090204;28;20209;-51
2023/06/07 12:23:03;;;;;;;32.60;25.23;;;22.40;99.90;;;;;;5088061;28;20532;-50
2023/06/07 12:25:28;;;;;;;38.45;23.77;;;22.40;99.90;;;;;;5090200;28;20203;-50
2023/06/07 12:27:54;;;;;;;28.42;23.17;;;22.70;99.90;;;;;;5089952;28;20200;-50
2023/06/07 12:30:20;;;;;;;27.35;23.88;;;22.50;99.90;;;;;;5090227;28;20173;-50
2023/06/07 12:32:46;;;;;;;26.35;21.67;;;22.70;99.90;;;;;;5089560;28;20190;-50
2023/06/07 12:35:12;;;;;;;30.65;22.98;;;22.90;99.90;;;;;;5089881;28;20288;-50
2023/06/07 12:37:38;;;;;;;30.13;22.25;;;22.80;99.90;;;;;;5089862;28;20537;-50
2023/06/07 12:40:07;;;;;;;32.63;25.27;;;23.20;99.90;;;;;;5090038;28;20172;-52